x

Central Gulf Of Alaska - 265nm West Of Cape Ommaney, Akk (46085) Wave Buoy

3:50pm - Sun 28th Aug 2016 All times are UTC.

  • Sig Wave height 4.6ft
  • Peak Period 7s
  • Average Period 6s
  • Wind
    11mph, 13mph gusts
  • Sea Temp 60°f
  • Air Temp 56°f
  • Sea Pressure 1008.9mb

More Historic Weather Station data

Upgrade to MSW Pro to gain access to the past 30 days of data for over 8000 Wavebouys and Weather Stations around the globe.

Join Pro

Comparision Forecast

View Surf forecast
   
Sun 08/28 3:50pm 4.5ft 7s 6s 11 13 mph 1008.9mb 60f 56f
2:50pm 4.5ft 8s 6s 13 16 mph 1008.9mb 60f 56f
1:50pm 4ft 7s 6s 13 16 mph 1009.2mb 60f 55f
12:50pm 4.5ft 8s 6s 13 16 mph 1009.6mb 59f 56f
11:50am 4.5ft 8s 6s 11 16 mph 1010mb 59f 57f
10:50am 4.5ft 8s 6s 9 11 mph 1010.3mb 59f 58f
9:50am 4.5ft 8s 6s 9 11 mph 1010.8mb 59f 58f
8:50am 5ft 8s 6s 11
mph
1010.9mb 59f 58f
7:50am 4.5ft 7s 6s 9 11 mph 1010.8mb 59f 58f
6:50am 4.5ft 8s 6s 7 9 mph 1010.9mb 59f 58f
5:50am 4.5ft 7s 6s 9
mph
1011.1mb 59f 58f
4:50am 4.5ft 7s 6s 4 7 mph 1011.1mb 59f 58f
3:50am 4.5ft 7s 5s 7 9 mph 1011.1mb 59f 58f
2:50am 4.5ft 7s 5s 9 11 mph 1011.7mb 59f 58f
1:50am 4ft 7s 5s 11 13 mph 1012mb 59f 58f
12:50am 3.5ft 7s 5s 9 11 mph 1012mb 59f 58f
Sat 08/27 11:50pm 3.5ft 7s 5s 9 11 mph 1012.5mb 59f 58f
10:50pm 3.5ft 7s 5s 11
mph
1012.8mb 59f 58f
9:50pm 3.5ft 7s 5s 11
mph
1013mb 59f 58f
8:50pm 3.5ft 7s 5s 11 13 mph 1012.9mb 59f 58f
7:50pm 3.5ft 6s 6s 13
mph
1012.7mb 59f 58f
6:50pm 3.5ft 7s 6s 7 9 mph 1013.1mb 59f 58f
5:50pm 3.5ft 7s 6s 7
mph
1013mb 59f 58f
4:50pm 4ft 7s 5s 7
mph
1013.2mb 59f 58f
3:50pm 4.5ft 6s 5s 7 9 mph 1013.5mb 59f 57f
2:50pm 4.5ft 7s 5s 7 9 mph 1013.6mb 59f 56f
1:50pm 5ft 7s 5s 7 9 mph 1014mb 59f 56f
12:50pm 4.5ft 7s 5s 2
mph
1014.8mb 59f 57f
11:50am 4.5ft 7s 5s 2 4 mph 1015.4mb 59f 57f
10:50am 4.5ft 7s 5s 2 4 mph 1016.1mb 59f 58f
9:50am 5ft 7s 5s 4 7 mph 1016.8mb 59f 57f
8:50am 4.5ft 8s 5s 13 16 mph 1017.6mb 59f 58f
7:50am 4.5ft 8s 5s 11 13 mph 1017.9mb 59f 58f
6:50am 5ft 7s 5s 11 16 mph 1018.4mb 59f 58f
5:50am 5ft 7s 5s 13 16 mph 1018.9mb 59f 58f
4:50am 6.5ft 7s 6s 18 20 mph 1019.2mb 59f 58f
3:50am 6ft 7s 5s 16 18 mph 1019.6mb 59f 58f
2:50am 6ft 7s 5s 16 20 mph 1020.2mb 59f 58f
1:50am 7ft 7s 5s 16 20 mph 1020.8mb 59f 58f
12:50am 6ft 7s 5s 18 20 mph 1021.3mb 59f 58f
Fri 08/26 11:50pm 6.5ft 7s 5s 18 20 mph 1021.9mb 59f 58f
10:50pm 6ft 7s 5s 16 20 mph 1022.2mb 59f 58f
9:50pm 5.5ft 7s 5s 16 20 mph 1022.4mb 59f 58f
8:50pm 6ft 7s 6s 16 18 mph 1022.4mb 59f 58f
7:50pm 5.5ft 7s 6s 13 16 mph 1022.6mb 59f 58f
6:50pm 6ft 7s 6s 13 18 mph 1022.7mb 59f 59f
5:50pm 5.5ft 7s 5s 13 16 mph 1022.8mb 59f 58f
4:50pm 6ft 7s 5s 16 18 mph 1023mb 59f 58f
3:50pm 7ft 7s 6s 18 22 mph 1023.1mb 59f 58f
2:50pm 7ft 7s 5s 20 22 mph 1023.2mb 59f 58f
1:50pm 7ft 7s 5s 20 22 mph 1023.4mb 59f 59f
12:50pm 7.5ft 7s 5s 20 25 mph 1023.8mb 59f 59f
11:50am 7.5ft 7s 5s 22 27 mph 1024.2mb 59f 59f
10:50am 7ft 6s 5s 20 27 mph 1024.6mb 59f 59f
9:50am 6.5ft 6s 5s 22 27 mph 1024.9mb 59f 59f
8:50am 6.5ft 6s 5s 22 29 mph 1025.5mb 59f 59f
7:50am 5.5ft 5s 5s 25 29 mph 1025.9mb 59f 59f
6:50am 5ft 7s 5s 22 27 mph 1026.3mb 59f 60f
5:50am 5ft 6s 5s 18 22 mph 1026.9mb 59f 60f
4:50am 5ft 7s 5s 20 22 mph 1027.6mb 59f 59f
3:50am 5ft 7s 5s 20 22 mph 1028.2mb 59f 59f
2:50am 5ft 7s 5s 18 20 mph 1028.8mb 59f 59f
1:50am 5ft 8s 5s 18 22 mph 1029.5mb 59f 59f
12:50am 5ft 7s 5s 16 20 mph 1030.3mb 59f 59f
Thu 08/25 11:50pm 5ft 7s 5s 16 20 mph 1030.8mb 59f 59f
10:50pm 5ft 7s 5s 16 18 mph 1031.7mb 59f 59f
9:50pm 4.5ft 8s 5s 16 20 mph 1032.2mb 59f 59f
8:50pm 4.5ft 8s 5s 16 20 mph 1032.4mb 59f 59f
7:50pm 4.5ft 8s 5s 18 20 mph 1032.8mb 59f 59f
6:50pm 4.5ft 8s 5s 16 20 mph 1033.1mb 59f 58f
5:50pm 5ft 8s 5s 16 20 mph 1033.4mb 59f 58f
4:50pm 5ft 8s 5s 18 20 mph 1033.9mb 59f 57f
3:50pm 5.5ft 8s 5s 16 20 mph 1034.2mb 59f 57f
2:50pm 5ft 7s 5s 18 20 mph 1034.7mb 59f 57f
1:50pm 6ft 7s 5s 18 20 mph 1034.8mb 59f 57f
12:50pm 5ft 8s 5s 16 18 mph 1035mb 59f 57f
11:50am 5ft 8s 5s 13 18 mph 1035mb 59f 57f
10:50am 5ft 8s 5s 16 20 mph 1035.2mb 59f 58f
9:50am 5ft 8s 6s 16 18 mph 1035.6mb 58f 58f
8:50am 4.5ft 8s 5s 13 18 mph 1035.7mb 58f 58f
7:50am 4.5ft 8s 5s 13 18 mph 1035.8mb 58f 58f
6:50am 5ft 7s 5s 11 13 mph 1035.5mb 58f 58f
5:50am 5ft 7s 5s 11 16 mph 1035.6mb 58f 58f
4:50am 5ft 7s 5s 13 16 mph 1035.4mb 58f 58f
3:50am 6ft 8s 5s 13 18 mph 1035.2mb 58f 58f
2:50am 6ft 8s 6s 13 16 mph 1035mb 58f 58f
1:50am 6ft 8s 5s 13 16 mph 1035.2mb 58f 58f
12:50am 6ft 7s 5s 16 18 mph 1034.9mb 58f 58f
Wed 08/24 11:50pm 6.5ft 7s 5s 18 20 mph 1035.2mb 58f 58f
10:50pm 5.5ft 8s 5s 18 20 mph 1035.2mb 58f 58f
9:50pm 6ft 8s 5s 18 22 mph 1034.9mb 59f 58f
8:50pm 6ft 7s 5s 18 20 mph 1034.8mb 59f 58f
7:50pm 6ft 6s 5s 18 20 mph 1034.6mb 59f 58f
6:50pm 6.5ft 8s 6s 18 25 mph 1034.1mb 59f 58f
5:50pm 6ft 7s 5s 18 22 mph 1033.5mb 59f 58f
4:50pm 6ft 7s  -  18 22 mph 1032.8mb 59f 58f